sensor_id;sensor_type;location;lat;lon;timestamp;P1;durP1;ratioP1;P2;durP2;ratioP2
22138;SDS011;25815;52.582;13.408;2023-02-01T00:01:35;22.48;;;3.05;;
22138;SDS011;25815;52.582;13.408;2023-02-01T00:04:01;29.27;;;3.47;;
22138;SDS011;25815;52.582;13.408;2023-02-01T00:06:27;17.70;;;3.13;;
22138;SDS011;25815;52.582;13.408;2023-02-01T00:08:53;22.15;;;3.72;;
22138;SDS011;25815;52.582;13.408;2023-02-01T00:11:20;21.50;;;3.33;;
22138;SDS011;25815;52.582;13.408;2023-02-01T00:13:46;20.58;;;2.95;;
22138;SDS011;25815;52.582;13.408;2023-02-01T00:16:13;18.77;;;2.70;;
22138;SDS011;25815;52.582;13.408;2023-02-01T00:18:41;20.17;;;3.38;;
22138;SDS011;25815;52.582;13.408;2023-02-01T00:21:07;18.80;;;2.75;;
22138;SDS011;25815;52.582;13.408;2023-02-01T00:23:33;25.67;;;2.97;;
22138;SDS011;25815;52.582;13.408;2023-02-01T00:26:00;22.42;;;2.85;;
22138;SDS011;25815;52.582;13.408;2023-02-01T00:28:27;23.40;;;3.03;;
22138;SDS011;25815;52.582;13.408;2023-02-01T00:30:59;22.02;;;2.60;;
22138;SDS011;25815;52.582;13.408;2023-02-01T00:33:26;24.48;;;2.70;;
22138;SDS011;25815;52.582;13.408;2023-02-01T00:35:56;18.17;;;3.30;;
22138;SDS011;25815;52.582;13.408;2023-02-01T00:38:22;16.70;;;2.38;;
22138;SDS011;25815;52.582;13.408;2023-02-01T00:40:48;15.77;;;2.83;;
22138;SDS011;25815;52.582;13.408;2023-02-01T00:43:14;18.88;;;2.75;;
22138;SDS011;25815;52.582;13.408;2023-02-01T00:45:40;18.17;;;2.38;;
22138;SDS011;25815;52.582;13.408;2023-02-01T00:48:06;26.67;;;2.65;;
22138;SDS011;25815;52.582;13.408;2023-02-01T00:50:32;17.33;;;2.33;;
22138;SDS011;25815;52.582;13.408;2023-02-01T00:52:57;26.00;;;2.40;;
22138;SDS011;25815;52.582;13.408;2023-02-01T00:55:24;15.13;;;2.50;;
22138;SDS011;25815;52.582;13.408;2023-02-01T00:57:50;16.63;;;2.03;;
22138;SDS011;25815;52.582;13.408;2023-02-01T01:00:16;14.02;;;2.03;;
22138;SDS011;25815;52.582;13.408;2023-02-01T01:02:42;10.48;;;1.88;;
22138;SDS011;25815;52.582;13.408;2023-02-01T01:05:08;14.63;;;2.25;;
22138;SDS011;25815;52.582;13.408;2023-02-01T01:07:34;19.33;;;3.10;;
22138;SDS011;25815;52.582;13.408;2023-02-01T01:10:00;15.48;;;2.00;;
22138;SDS011;25815;52.582;13.408;2023-02-01T01:12:26;13.30;;;2.20;;
22138;SDS011;25815;52.582;13.408;2023-02-01T01:14:52;12.70;;;1.92;;
22138;SDS011;25815;52.582;13.408;2023-02-01T01:17:18;14.95;;;2.40;;
22138;SDS011;25815;52.582;13.408;2023-02-01T01:19:43;15.15;;;2.25;;
22138;SDS011;25815;52.582;13.408;2023-02-01T01:22:09;17.10;;;1.83;;
22138;SDS011;25815;52.582;13.408;2023-02-01T01:24:35;13.98;;;2.42;;
22138;SDS011;25815;52.582;13.408;2023-02-01T01:27:01;14.50;;;2.15;;
22138;SDS011;25815;52.582;13.408;2023-02-01T01:29:27;11.15;;;1.98;;
22138;SDS011;25815;52.582;13.408;2023-02-01T01:31:53;21.40;;;2.53;;
22138;SDS011;25815;52.582;13.408;2023-02-01T01:34:19;19.98;;;2.83;;
22138;SDS011;25815;52.582;13.408;2023-02-01T01:36:45;17.13;;;2.33;;
22138;SDS011;25815;52.582;13.408;2023-02-01T01:39:11;20.02;;;2.30;;
22138;SDS011;25815;52.582;13.408;2023-02-01T01:41:37;15.63;;;2.28;;
22138;SDS011;25815;52.582;13.408;2023-02-01T01:44:04;13.85;;;2.30;;
22138;SDS011;25815;52.582;13.408;2023-02-01T01:46:37;18.17;;;2.22;;
22138;SDS011;25815;52.582;13.408;2023-02-01T01:49:09;23.27;;;2.97;;
22138;SDS011;25815;52.582;13.408;2023-02-01T01:51:58;17.10;;;2.72;;
22138;SDS011;25815;52.582;13.408;2023-02-01T01:56:59;19.73;;;2.40;;
22138;SDS011;25815;52.582;13.408;2023-02-01T01:59:26;18.83;;;2.22;;
22138;SDS011;25815;52.582;13.408;2023-02-01T02:01:52;13.90;;;2.33;;
22138;SDS011;25815;52.582;13.408;2023-02-01T02:04:19;14.82;;;2.47;;
22138;SDS011;25815;52.582;13.408;2023-02-01T02:09:13;16.70;;;2.75;;
22138;SDS011;25815;52.582;13.408;2023-02-01T02:11:39;16.33;;;2.50;;
22138;SDS011;25815;52.582;13.408;2023-02-01T02:14:05;18.02;;;2.15;;
22138;SDS011;25815;52.582;13.408;2023-02-01T02:16:40;17.38;;;2.63;;
22138;SDS011;25815;52.582;13.408;2023-02-01T02:19:19;20.08;;;3.13;;
22138;SDS011;25815;52.582;13.408;2023-02-01T02:22:10;20.63;;;3.03;;
22138;SDS011;25815;52.582;13.408;2023-02-01T02:25:00;20.38;;;2.65;;
22138;SDS011;25815;52.582;13.408;2023-02-01T02:27:33;17.52;;;1.92;;
22138;SDS011;25815;52.582;13.408;2023-02-01T02:35:22;21.38;;;2.58;;
22138;SDS011;25815;52.582;13.408;2023-02-01T02:37:54;17.50;;;2.40;;
22138;SDS011;25815;52.582;13.408;2023-02-01T02:40:26;18.85;;;2.28;;
22138;SDS011;25815;52.582;13.408;2023-02-01T02:45:47;17.33;;;3.08;;
22138;SDS011;25815;52.582;13.408;2023-02-01T02:48:47;21.30;;;2.58;;
22138;SDS011;25815;52.582;13.408;2023-02-01T02:51:24;16.27;;;1.98;;
22138;SDS011;25815;52.582;13.408;2023-02-01T02:54:13;18.88;;;2.78;;
22138;SDS011;25815;52.582;13.408;2023-02-01T02:59:44;19.58;;;2.70;;
22138;SDS011;25815;52.582;13.408;2023-02-01T03:02:30;16.58;;;2.13;;
22138;SDS011;25815;52.582;13.408;2023-02-01T03:05:15;14.88;;;1.98;;
22138;SDS011;25815;52.582;13.408;2023-02-01T03:10:33;16.23;;;2.47;;
22138;SDS011;25815;52.582;13.408;2023-02-01T03:12:59;19.02;;;2.60;;
22138;SDS011;25815;52.582;13.408;2023-02-01T03:15:31;13.48;;;3.22;;
22138;SDS011;25815;52.582;13.408;2023-02-01T03:17:57;18.15;;;2.38;;
22138;SDS011;25815;52.582;13.408;2023-02-01T03:20:25;17.65;;;2.33;;
22138;SDS011;25815;52.582;13.408;2023-02-01T03:22:51;21.13;;;2.92;;
22138;SDS011;25815;52.582;13.408;2023-02-01T03:25:20;14.43;;;2.17;;
22138;SDS011;25815;52.582;13.408;2023-02-01T03:27:52;19.13;;;2.80;;
22138;SDS011;25815;52.582;13.408;2023-02-01T03:30:22;17.60;;;2.33;;
22138;SDS011;25815;52.582;13.408;2023-02-01T03:32:51;18.50;;;2.08;;
22138;SDS011;25815;52.582;13.408;2023-02-01T03:35:48;18.48;;;2.47;;
22138;SDS011;25815;52.582;13.408;2023-02-01T03:41:09;24.70;;;2.58;;
22138;SDS011;25815;52.582;13.408;2023-02-01T03:43:41;19.77;;;2.72;;
22138;SDS011;25815;52.582;13.408;2023-02-01T03:46:09;20.80;;;2.55;;
22138;SDS011;25815;52.582;13.408;2023-02-01T03:48:38;19.02;;;2.70;;
22138;SDS011;25815;52.582;13.408;2023-02-01T03:51:05;19.75;;;2.50;;
22138;SDS011;25815;52.582;13.408;2023-02-01T03:53:32;17.52;;;2.22;;
22138;SDS011;25815;52.582;13.408;2023-02-01T03:55:58;16.45;;;3.05;;
22138;SDS011;25815;52.582;13.408;2023-02-01T03:58:24;13.77;;;2.58;;
22138;SDS011;25815;52.582;13.408;2023-02-01T04:00:51;21.30;;;3.03;;
22138;SDS011;25815;52.582;13.408;2023-02-01T04:03:17;16.95;;;3.03;;
22138;SDS011;25815;52.582;13.408;2023-02-01T04:05:43;12.77;;;1.98;;
22138;SDS011;25815;52.582;13.408;2023-02-01T04:08:09;18.90;;;2.60;;
22138;SDS011;25815;52.582;13.408;2023-02-01T04:10:35;19.88;;;2.70;;
22138;SDS011;25815;52.582;13.408;2023-02-01T04:13:01;21.20;;;2.78;;
22138;SDS011;25815;52.582;13.408;2023-02-01T04:15:27;24.02;;;2.35;;
22138;SDS011;25815;52.582;13.408;2023-02-01T04:17:53;15.85;;;2.47;;
22138;SDS011;25815;52.582;13.408;2023-02-01T04:20:19;16.85;;;2.63;;
22138;SDS011;25815;52.582;13.408;2023-02-01T04:22:45;16.85;;;2.45;;
22138;SDS011;25815;52.582;13.408;2023-02-01T04:25:11;15.15;;;2.55;;
22138;SDS011;25815;52.582;13.408;2023-02-01T04:27:37;17.35;;;2.78;;
22138;SDS011;25815;52.582;13.408;2023-02-01T04:30:03;17.08;;;2.78;;
22138;SDS011;25815;52.582;13.408;2023-02-01T04:32:29;15.48;;;2.30;;
22138;SDS011;25815;52.582;13.408;2023-02-01T04:34:55;16.63;;;2.42;;
22138;SDS011;25815;52.582;13.408;2023-02-01T04:37:21;13.65;;;2.10;;
22138;SDS011;25815;52.582;13.408;2023-02-01T04:39:47;21.55;;;2.70;;
22138;SDS011;25815;52.582;13.408;2023-02-01T04:42:13;23.33;;;2.85;;
22138;SDS011;25815;52.582;13.408;2023-02-01T04:44:39;20.02;;;3.13;;
22138;SDS011;25815;52.582;13.408;2023-02-01T04:47:06;27.52;;;2.88;;
22138;SDS011;25815;52.582;13.408;2023-02-01T04:49:33;20.77;;;3.00;;
22138;SDS011;25815;52.582;13.408;2023-02-01T04:51:58;17.63;;;3.08;;
22138;SDS011;25815;52.582;13.408;2023-02-01T04:54:24;23.08;;;3.22;;
22138;SDS011;25815;52.582;13.408;2023-02-01T04:56:50;17.92;;;2.45;;
22138;SDS011;25815;52.582;13.408;2023-02-01T04:59:16;24.92;;;3.63;;
22138;SDS011;25815;52.582;13.408;2023-02-01T05:01:42;17.30;;;3.08;;
22138;SDS011;25815;52.582;13.408;2023-02-01T05:04:08;19.27;;;2.80;;
22138;SDS011;25815;52.582;13.408;2023-02-01T05:06:34;22.15;;;3.25;;
22138;SDS011;25815;52.582;13.408;2023-02-01T05:09:00;17.25;;;2.70;;
22138;SDS011;25815;52.582;13.408;2023-02-01T05:11:26;27.70;;;3.90;;
22138;SDS011;25815;52.582;13.408;2023-02-01T05:14:11;22.50;;;2.88;;
22138;SDS011;25815;52.582;13.408;2023-02-01T05:16:37;25.60;;;2.83;;
22138;SDS011;25815;52.582;13.408;2023-02-01T05:19:02;22.42;;;3.08;;
22138;SDS011;25815;52.582;13.408;2023-02-01T05:21:28;20.77;;;2.65;;
22138;SDS011;25815;52.582;13.408;2023-02-01T05:23:54;20.63;;;2.90;;
22138;SDS011;25815;52.582;13.408;2023-02-01T05:26:37;19.08;;;3.35;;
22138;SDS011;25815;52.582;13.408;2023-02-01T05:29:04;24.55;;;3.58;;
22138;SDS011;25815;52.582;13.408;2023-02-01T05:31:30;14.05;;;2.60;;
22138;SDS011;25815;52.582;13.408;2023-02-01T05:33:56;17.17;;;2.60;;
22138;SDS011;25815;52.582;13.408;2023-02-01T05:36:22;18.15;;;2.40;;
22138;SDS011;25815;52.582;13.408;2023-02-01T05:38:48;19.60;;;2.97;;
22138;SDS011;25815;52.582;13.408;2023-02-01T05:41:14;25.40;;;3.75;;
22138;SDS011;25815;52.582;13.408;2023-02-01T05:43:40;21.63;;;3.08;;
22138;SDS011;25815;52.582;13.408;2023-02-01T05:46:06;17.60;;;2.70;;
22138;SDS011;25815;52.582;13.408;2023-02-01T05:48:31;23.67;;;2.60;;
22138;SDS011;25815;52.582;13.408;2023-02-01T05:50:57;19.33;;;2.90;;
22138;SDS011;25815;52.582;13.408;2023-02-01T05:53:23;16.60;;;2.38;;
22138;SDS011;25815;52.582;13.408;2023-02-01T05:55:49;18.00;;;2.83;;
22138;SDS011;25815;52.582;13.408;2023-02-01T05:58:15;18.13;;;2.78;;
22138;SDS011;25815;52.582;13.408;2023-02-01T06:00:41;21.85;;;3.35;;
22138;SDS011;25815;52.582;13.408;2023-02-01T06:03:07;21.20;;;3.50;;
22138;SDS011;25815;52.582;13.408;2023-02-01T06:05:33;12.65;;;2.05;;
22138;SDS011;25815;52.582;13.408;2023-02-01T06:07:59;16.85;;;3.10;;
22138;SDS011;25815;52.582;13.408;2023-02-01T06:10:25;18.58;;;2.63;;
22138;SDS011;25815;52.582;13.408;2023-02-01T06:12:51;22.05;;;3.38;;
22138;SDS011;25815;52.582;13.408;2023-02-01T06:15:17;18.58;;;2.55;;
22138;SDS011;25815;52.582;13.408;2023-02-01T06:17:44;22.80;;;2.85;;
22138;SDS011;25815;52.582;13.408;2023-02-01T06:20:10;20.25;;;2.25;;
22138;SDS011;25815;52.582;13.408;2023-02-01T06:22:36;16.88;;;2.50;;
22138;SDS011;25815;52.582;13.408;2023-02-01T06:25:03;19.67;;;2.92;;
22138;SDS011;25815;52.582;13.408;2023-02-01T06:27:29;20.02;;;2.50;;
22138;SDS011;25815;52.582;13.408;2023-02-01T06:29:55;18.48;;;2.53;;
22138;SDS011;25815;52.582;13.408;2023-02-01T06:32:21;15.43;;;2.42;;
22138;SDS011;25815;52.582;13.408;2023-02-01T06:34:48;21.65;;;3.53;;
22138;SDS011;25815;52.582;13.408;2023-02-01T06:37:14;15.75;;;2.55;;
22138;SDS011;25815;52.582;13.408;2023-02-01T06:39:40;15.40;;;2.05;;
22138;SDS011;25815;52.582;13.408;2023-02-01T06:42:06;23.33;;;3.45;;
22138;SDS011;25815;52.582;13.408;2023-02-01T06:44:32;22.40;;;3.22;;
22138;SDS011;25815;52.582;13.408;2023-02-01T06:46:58;22.55;;;3.22;;
22138;SDS011;25815;52.582;13.408;2023-02-01T06:49:24;15.05;;;2.60;;
22138;SDS011;25815;52.582;13.408;2023-02-01T06:51:50;18.83;;;3.05;;
22138;SDS011;25815;52.582;13.408;2023-02-01T06:54:16;18.48;;;2.78;;
22138;SDS011;25815;52.582;13.408;2023-02-01T06:56:42;18.45;;;4.55;;
22138;SDS011;25815;52.582;13.408;2023-02-01T06:59:08;23.60;;;3.90;;
22138;SDS011;25815;52.582;13.408;2023-02-01T07:01:34;19.98;;;3.40;;
22138;SDS011;25815;52.582;13.408;2023-02-01T07:04:00;19.92;;;3.05;;
22138;SDS011;25815;52.582;13.408;2023-02-01T07:06:26;24.23;;;4.18;;
22138;SDS011;25815;52.582;13.408;2023-02-01T07:08:52;19.67;;;3.28;;
22138;SDS011;25815;52.582;13.408;2023-02-01T07:11:20;18.58;;;2.75;;
22138;SDS011;25815;52.582;13.408;2023-02-01T07:13:46;12.55;;;2.42;;
22138;SDS011;25815;52.582;13.408;2023-02-01T07:16:13;14.27;;;3.70;;
22138;SDS011;25815;52.582;13.408;2023-02-01T07:18:40;22.48;;;3.90;;
22138;SDS011;25815;52.582;13.408;2023-02-01T07:21:06;19.75;;;3.10;;
22138;SDS011;25815;52.582;13.408;2023-02-01T07:23:32;16.02;;;3.10;;
22138;SDS011;25815;52.582;13.408;2023-02-01T07:25:59;17.63;;;2.88;;
22138;SDS011;25815;52.582;13.408;2023-02-01T07:28:25;20.58;;;4.00;;
22138;SDS011;25815;52.582;13.408;2023-02-01T07:30:51;20.48;;;3.38;;
22138;SDS011;25815;52.582;13.408;2023-02-01T07:33:18;17.23;;;2.50;;
22138;SDS011;25815;52.582;13.408;2023-02-01T07:35:45;20.17;;;3.38;;
22138;SDS011;25815;52.582;13.408;2023-02-01T07:38:11;18.60;;;3.40;;
22138;SDS011;25815;52.582;13.408;2023-02-01T07:40:37;17.05;;;3.38;;
22138;SDS011;25815;52.582;13.408;2023-02-01T07:43:03;17.70;;;3.22;;
22138;SDS011;25815;52.582;13.408;2023-02-01T07:45:30;16.60;;;3.92;;
22138;SDS011;25815;52.582;13.408;2023-02-01T07:47:56;17.33;;;3.47;;
22138;SDS011;25815;52.582;13.408;2023-02-01T07:50:22;18.63;;;3.10;;
22138;SDS011;25815;52.582;13.408;2023-02-01T07:52:48;17.40;;;3.28;;
22138;SDS011;25815;52.582;13.408;2023-02-01T07:55:14;13.52;;;2.85;;
22138;SDS011;25815;52.582;13.408;2023-02-01T07:57:40;12.32;;;2.47;;
22138;SDS011;25815;52.582;13.408;2023-02-01T08:00:07;11.00;;;2.47;;
22138;SDS011;25815;52.582;13.408;2023-02-01T08:02:52;16.48;;;2.63;;
22138;SDS011;25815;52.582;13.408;2023-02-01T08:05:18;16.15;;;2.90;;
22138;SDS011;25815;52.582;13.408;2023-02-01T08:07:47;11.30;;;2.53;;
22138;SDS011;25815;52.582;13.408;2023-02-01T08:12:39;11.90;;;2.97;;
22138;SDS011;25815;52.582;13.408;2023-02-01T08:15:06;14.75;;;2.80;;
22138;SDS011;25815;52.582;13.408;2023-02-01T08:17:32;13.63;;;2.85;;
22138;SDS011;25815;52.582;13.408;2023-02-01T08:19:58;15.45;;;2.72;;
22138;SDS011;25815;52.582;13.408;2023-02-01T08:22:24;15.10;;;3.20;;
22138;SDS011;25815;52.582;13.408;2023-02-01T08:24:50;15.82;;;3.17;;
22138;SDS011;25815;52.582;13.408;2023-02-01T08:27:16;11.43;;;2.70;;
22138;SDS011;25815;52.582;13.408;2023-02-01T08:29:43;12.07;;;2.95;;
22138;SDS011;25815;52.582;13.408;2023-02-01T08:32:09;15.02;;;3.38;;
22138;SDS011;25815;52.582;13.408;2023-02-01T08:34:35;15.43;;;3.80;;
22138;SDS011;25815;52.582;13.408;2023-02-01T08:37:00;15.15;;;4.07;;
22138;SDS011;25815;52.582;13.408;2023-02-01T08:39:26;12.50;;;3.25;;
22138;SDS011;25815;52.582;13.408;2023-02-01T08:41:52;12.48;;;3.58;;
22138;SDS011;25815;52.582;13.408;2023-02-01T08:44:37;8.57;;;2.97;;
22138;SDS011;25815;52.582;13.408;2023-02-01T08:47:03;11.63;;;3.65;;
22138;SDS011;25815;52.582;13.408;2023-02-01T08:49:29;15.95;;;4.32;;
22138;SDS011;25815;52.582;13.408;2023-02-01T08:51:55;10.20;;;3.30;;
22138;SDS011;25815;52.582;13.408;2023-02-01T08:54:21;10.65;;;3.08;;
22138;SDS011;25815;52.582;13.408;2023-02-01T08:56:47;13.48;;;3.15;;
22138;SDS011;25815;52.582;13.408;2023-02-01T08:59:13;10.10;;;2.95;;
22138;SDS011;25815;52.582;13.408;2023-02-01T09:01:39;7.85;;;2.65;;
22138;SDS011;25815;52.582;13.408;2023-02-01T09:04:05;9.07;;;2.88;;
22138;SDS011;25815;52.582;13.408;2023-02-01T09:06:31;6.05;;;2.42;;
22138;SDS011;25815;52.582;13.408;2023-02-01T09:08:57;9.05;;;2.53;;
22138;SDS011;25815;52.582;13.408;2023-02-01T09:11:23;10.02;;;2.60;;
22138;SDS011;25815;52.582;13.408;2023-02-01T09:13:49;8.57;;;2.65;;
22138;SDS011;25815;52.582;13.408;2023-02-01T09:16:15;10.02;;;3.30;;
22138;SDS011;25815;52.582;13.408;2023-02-01T09:18:41;7.00;;;2.83;;
22138;SDS011;25815;52.582;13.408;2023-02-01T09:21:07;5.68;;;1.70;;
22138;SDS011;25815;52.582;13.408;2023-02-01T09:23:33;11.05;;;2.58;;
22138;SDS011;25815;52.582;13.408;2023-02-01T09:26:00;6.63;;;2.60;;
22138;SDS011;25815;52.582;13.408;2023-02-01T09:28:26;11.20;;;2.47;;
22138;SDS011;25815;52.582;13.408;2023-02-01T09:30:55;7.43;;;2.00;;
22138;SDS011;25815;52.582;13.408;2023-02-01T09:33:21;4.95;;;1.98;;
22138;SDS011;25815;52.582;13.408;2023-02-01T09:35:48;8.23;;;2.20;;
22138;SDS011;25815;52.582;13.408;2023-02-01T09:38:14;6.72;;;2.00;;
22138;SDS011;25815;52.582;13.408;2023-02-01T09:40:42;5.88;;;1.70;;
22138;SDS011;25815;52.582;13.408;2023-02-01T09:48:08;4.43;;;1.10;;
22138;SDS011;25815;52.582;13.408;2023-02-01T09:50:35;4.13;;;1.50;;
22138;SDS011;25815;52.582;13.408;2023-02-01T09:53:06;1.98;;;0.77;;
22138;SDS011;25815;52.582;13.408;2023-02-01T09:55:41;4.85;;;1.50;;
22138;SDS011;25815;52.582;13.408;2023-02-01T09:58:11;5.70;;;1.70;;
22138;SDS011;25815;52.582;13.408;2023-02-01T10:00:40;5.18;;;1.50;;
22138;SDS011;25815;52.582;13.408;2023-02-01T10:03:11;5.43;;;1.45;;
22138;SDS011;25815;52.582;13.408;2023-02-01T10:08:20;5.38;;;1.20;;
22138;SDS011;25815;52.582;13.408;2023-02-01T10:10:51;5.05;;;1.08;;
22138;SDS011;25815;52.582;13.408;2023-02-01T10:16:05;6.28;;;1.10;;
22138;SDS011;25815;52.582;13.408;2023-02-01T10:18:43;4.53;;;1.25;;
22138;SDS011;25815;52.582;13.408;2023-02-01T10:26:20;5.20;;;1.77;;
22138;SDS011;25815;52.582;13.408;2023-02-01T10:28:48;10.93;;;2.67;;
22138;SDS011;25815;52.582;13.408;2023-02-01T10:31:14;8.98;;;2.17;;
22138;SDS011;25815;52.582;13.408;2023-02-01T10:36:12;9.77;;;2.90;;
22138;SDS011;25815;52.582;13.408;2023-02-01T10:38:39;9.98;;;1.90;;
22138;SDS011;25815;52.582;13.408;2023-02-01T10:41:12;12.57;;;2.35;;
22138;SDS011;25815;52.582;13.408;2023-02-01T10:43:39;8.93;;;1.92;;
22138;SDS011;25815;52.582;13.408;2023-02-01T10:46:06;13.43;;;2.45;;
22138;SDS011;25815;52.582;13.408;2023-02-01T10:48:32;7.07;;;1.25;;
22138;SDS011;25815;52.582;13.408;2023-02-01T10:51:05;9.25;;;1.73;;
22138;SDS011;25815;52.582;13.408;2023-02-01T10:53:36;7.57;;;1.33;;
22138;SDS011;25815;52.582;13.408;2023-02-01T10:56:07;5.35;;;1.45;;
22138;SDS011;25815;52.582;13.408;2023-02-01T10:58:33;4.15;;;1.40;;
22138;SDS011;25815;52.582;13.408;2023-02-01T11:01:03;7.27;;;1.70;;
22138;SDS011;25815;52.582;13.408;2023-02-01T11:03:37;6.07;;;1.73;;
22138;SDS011;25815;52.582;13.408;2023-02-01T11:06:17;5.10;;;1.65;;
22138;SDS011;25815;52.582;13.408;2023-02-01T11:08:45;7.68;;;2.13;;
22138;SDS011;25815;52.582;13.408;2023-02-01T11:11:11;9.90;;;1.98;;
22138;SDS011;25815;52.582;13.408;2023-02-01T11:13:38;8.25;;;1.52;;
22138;SDS011;25815;52.582;13.408;2023-02-01T11:16:04;8.82;;;1.85;;
22138;SDS011;25815;52.582;13.408;2023-02-01T11:18:32;9.23;;;2.00;;
22138;SDS011;25815;52.582;13.408;2023-02-01T11:21:00;8.40;;;1.90;;
22138;SDS011;25815;52.582;13.408;2023-02-01T11:23:27;10.38;;;1.88;;
22138;SDS011;25815;52.582;13.408;2023-02-01T11:25:56;11.13;;;1.98;;
22138;SDS011;25815;52.582;13.408;2023-02-01T11:28:23;11.50;;;1.77;;
22138;SDS011;25815;52.582;13.408;2023-02-01T11:30:51;9.43;;;1.60;;
22138;SDS011;25815;52.582;13.408;2023-02-01T11:33:20;5.53;;;1.50;;
22138;SDS011;25815;52.582;13.408;2023-02-01T11:35:49;10.77;;;2.28;;
22138;SDS011;25815;52.582;13.408;2023-02-01T11:38:20;11.75;;;2.00;;
22138;SDS011;25815;52.582;13.408;2023-02-01T11:40:46;10.43;;;2.43;;
22138;SDS011;25815;52.582;13.408;2023-02-01T11:45:38;10.23;;;2.25;;
22138;SDS011;25815;52.582;13.408;2023-02-01T11:48:08;16.33;;;2.50;;
22138;SDS011;25815;52.582;13.408;2023-02-01T11:50:45;11.38;;;2.13;;
22138;SDS011;25815;52.582;13.408;2023-02-01T11:53:17;15.90;;;2.63;;
22138;SDS011;25815;52.582;13.408;2023-02-01T11:56:01;11.57;;;2.33;;
22138;SDS011;25815;52.582;13.408;2023-02-01T11:58:48;13.25;;;2.17;;
22138;SDS011;25815;52.582;13.408;2023-02-01T12:06:44;11.88;;;2.15;;
22138;SDS011;25815;52.582;13.408;2023-02-01T12:11:51;12.50;;;2.35;;
22138;SDS011;25815;52.582;13.408;2023-02-01T12:14:23;10.80;;;1.73;;
22138;SDS011;25815;52.582;13.408;2023-02-01T12:21:52;9.43;;;1.92;;
22138;SDS011;25815;52.582;13.408;2023-02-01T12:25:06;10.82;;;1.60;;
22138;SDS011;25815;52.582;13.408;2023-02-01T12:29:56;9.93;;;1.98;;
22138;SDS011;25815;52.582;13.408;2023-02-01T12:32:32;9.52;;;1.52;;
22138;SDS011;25815;52.582;13.408;2023-02-01T12:35:08;7.70;;;1.70;;
22138;SDS011;25815;52.582;13.408;2023-02-01T12:37:43;4.70;;;1.15;;
22138;SDS011;25815;52.582;13.408;2023-02-01T12:40:26;6.90;;;1.92;;
22138;SDS011;25815;52.582;13.408;2023-02-01T12:42:59;9.43;;;1.73;;
22138;SDS011;25815;52.582;13.408;2023-02-01T12:45:40;9.88;;;1.45;;
22138;SDS011;25815;52.582;13.408;2023-02-01T12:48:16;13.77;;;1.90;;
22138;SDS011;25815;52.582;13.408;2023-02-01T12:50:48;8.32;;;1.88;;
22138;SDS011;25815;52.582;13.408;2023-02-01T12:55:55;12.15;;;1.98;;
22138;SDS011;25815;52.582;13.408;2023-02-01T12:58:24;15.00;;;1.77;;
22138;SDS011;25815;52.582;13.408;2023-02-01T13:08:23;14.33;;;2.10;;
22138;SDS011;25815;52.582;13.408;2023-02-01T13:16:14;2.63;;;0.20;;
22138;SDS011;25815;52.582;13.408;2023-02-01T13:18:43;0.88;;;0.30;;
22138;SDS011;25815;52.582;13.408;2023-02-01T13:21:21;0.97;;;0.23;;
22138;SDS011;25815;52.582;13.408;2023-02-01T13:23:49;0.88;;;0.40;;
22138;SDS011;25815;52.582;13.408;2023-02-01T13:26:16;2.65;;;0.60;;
22138;SDS011;25815;52.582;13.408;2023-02-01T13:39:14;12.45;;;2.58;;
22138;SDS011;25815;52.582;13.408;2023-02-01T13:44:21;12.93;;;1.95;;
22138;SDS011;25815;52.582;13.408;2023-02-01T13:46:48;11.73;;;1.80;;
22138;SDS011;25815;52.582;13.408;2023-02-01T13:49:23;13.38;;;2.70;;
22138;SDS011;25815;52.582;13.408;2023-02-01T13:51:54;12.25;;;2.17;;
22138;SDS011;25815;52.582;13.408;2023-02-01T13:54:30;12.00;;;1.80;;
22138;SDS011;25815;52.582;13.408;2023-02-01T13:56:57;10.32;;;1.67;;
22138;SDS011;25815;52.582;13.408;2023-02-01T13:59:44;10.60;;;2.13;;
22138;SDS011;25815;52.582;13.408;2023-02-01T14:04:59;9.52;;;2.40;;
22138;SDS011;25815;52.582;13.408;2023-02-01T14:07:25;12.32;;;2.03;;
22138;SDS011;25815;52.582;13.408;2023-02-01T14:09:51;13.32;;;2.15;;
22138;SDS011;25815;52.582;13.408;2023-02-01T14:17:48;6.35;;;1.25;;
22138;SDS011;25815;52.582;13.408;2023-02-01T14:20:36;8.10;;;1.65;;
22138;SDS011;25815;52.582;13.408;2023-02-01T14:23:03;7.72;;;1.83;;
22138;SDS011;25815;52.582;13.408;2023-02-01T14:25:32;12.07;;;2.22;;
22138;SDS011;25815;52.582;13.408;2023-02-01T14:27:58;12.13;;;2.25;;
22138;SDS011;25815;52.582;13.408;2023-02-01T14:30:24;11.90;;;2.00;;
22138;SDS011;25815;52.582;13.408;2023-02-01T14:32:50;4.70;;;1.65;;
22138;SDS011;25815;52.582;13.408;2023-02-01T14:35:20;13.90;;;2.20;;
22138;SDS011;25815;52.582;13.408;2023-02-01T14:37:46;15.23;;;2.50;;
22138;SDS011;25815;52.582;13.408;2023-02-01T14:40:19;9.75;;;2.22;;
22138;SDS011;25815;52.582;13.408;2023-02-01T14:42:46;11.63;;;2.03;;
22138;SDS011;25815;52.582;13.408;2023-02-01T14:55:38;16.88;;;3.50;;
22138;SDS011;25815;52.582;13.408;2023-02-01T14:58:05;17.50;;;3.08;;
22138;SDS011;25815;52.582;13.408;2023-02-01T15:00:32;14.23;;;3.13;;
22138;SDS011;25815;52.582;13.408;2023-02-01T15:03:15;17.17;;;3.13;;
22138;SDS011;25815;52.582;13.408;2023-02-01T15:05:42;17.77;;;3.65;;
22138;SDS011;25815;52.582;13.408;2023-02-01T15:08:16;14.75;;;2.97;;
22138;SDS011;25815;52.582;13.408;2023-02-01T15:10:44;12.77;;;2.95;;
22138;SDS011;25815;52.582;13.408;2023-02-01T15:13:21;14.80;;;3.03;;
22138;SDS011;25815;52.582;13.408;2023-02-01T15:18:29;6.75;;;1.40;;
22138;SDS011;25815;52.582;13.408;2023-02-01T15:20:56;7.60;;;1.35;;
22138;SDS011;25815;52.582;13.408;2023-02-01T15:23:22;2.55;;;0.75;;
22138;SDS011;25815;52.582;13.408;2023-02-01T15:25:48;4.70;;;1.10;;
22138;SDS011;25815;52.582;13.408;2023-02-01T15:28:15;4.80;;;1.13;;
22138;SDS011;25815;52.582;13.408;2023-02-01T15:30:51;4.28;;;1.40;;
22138;SDS011;25815;52.582;13.408;2023-02-01T15:33:18;6.43;;;1.30;;
22138;SDS011;25815;52.582;13.408;2023-02-01T15:44:19;5.03;;;1.30;;
22138;SDS011;25815;52.582;13.408;2023-02-01T15:48:49;2.50;;;0.90;;
22138;SDS011;25815;52.582;13.408;2023-02-01T15:51:18;7.65;;;1.85;;
22138;SDS011;25815;52.582;13.408;2023-02-01T15:53:46;2.90;;;1.10;;
22138;SDS011;25815;52.582;13.408;2023-02-01T15:56:13;1.98;;;1.10;;
22138;SDS011;25815;52.582;13.408;2023-02-01T15:58:40;4.53;;;1.05;;
22138;SDS011;25815;52.582;13.408;2023-02-01T16:01:10;1.98;;;0.80;;
22138;SDS011;25815;52.582;13.408;2023-02-01T16:03:39;0.88;;;0.52;;
22138;SDS011;25815;52.582;13.408;2023-02-01T16:06:07;2.58;;;0.65;;
22138;SDS011;25815;52.582;13.408;2023-02-01T16:08:33;1.10;;;0.70;;
22138;SDS011;25815;52.582;13.408;2023-02-01T16:13:33;1.65;;;0.50;;
22138;SDS011;25815;52.582;13.408;2023-02-01T16:15:59;1.10;;;0.70;;
22138;SDS011;25815;52.582;13.408;2023-02-01T16:18:25;3.85;;;1.00;;
22138;SDS011;25815;52.582;13.408;2023-02-01T16:20:51;0.95;;;0.40;;
22138;SDS011;25815;52.582;13.408;2023-02-01T16:23:17;0.80;;;0.60;;
22138;SDS011;25815;52.582;13.408;2023-02-01T16:25:45;2.90;;;0.50;;
22138;SDS011;25815;52.582;13.408;2023-02-01T16:28:11;1.30;;;0.52;;
22138;SDS011;25815;52.582;13.408;2023-02-01T16:30:37;0.60;;;0.55;;
22138;SDS011;25815;52.582;13.408;2023-02-01T16:33:03;1.73;;;0.95;;
22138;SDS011;25815;52.582;13.408;2023-02-01T16:35:33;1.40;;;0.70;;
22138;SDS011;25815;52.582;13.408;2023-02-01T16:38:09;2.55;;;0.90;;